CST,Max TemperatureF,Mean TemperatureF,Min TemperatureF,Max Dew PointF,MeanDew PointF,Min DewpointF,Max Humidity, Mean Humidity, Min Humidity, Max Sea Level PressureIn, Mean Sea Level PressureIn, Min Sea Level PressureIn, Max VisibilityMiles, Mean VisibilityMiles, Min VisibilityMiles, Max Wind SpeedMPH, Mean Wind SpeedMPH, Max Gust SpeedMPH,PrecipitationIn, CloudCover, Events, WindDirDegrees
2013-1-1,29,15,0,24,9,-2,96,82,67,30.26,30.08,29.90,10,6,0,17,5,23,0.03,6,Fog-Snow,250
2013-1-2,30,20,10,25,21,12,88,80,64,30.38,30.08,29.91,10,8,1,20,13,26,0.01,8,Snow,312
2013-1-3,27,18,8,15,12,7,84,70,55,30.37,30.22,30.11,10,10,10,18,8,21,0.00,3,,259
2013-1-4,28,15,1,14,7,-1,88,72,55,30.22,30.13,30.00,10,10,10,9,2,12,0.00,0,,207
2013-1-5,22,10,-3,14,7,-3,95,84,73,30.27,30.15,29.98,10,7,2,28,8,37,T,5,Snow,303
2013-1-6,25,13,1,17,7,0,96,87,77,30.26,30.07,29.86,10,7,0,13,5,14,0.00,1,Fog,81
2013-1-7,36,20,3,22,16,4,92,74,56,29.95,29.90,29.77,10,10,9,16,8,22,0.00,0,,255
2013-1-8,39,22,4,28,21,2,92,76,59,30.00,29.80,29.62,10,10,5,29,13,36,0.02,4,Snow,287
2013-1-9,36,23,9,26,19,9,88,76,64,30.18,30.08,29.91,10,10,10,23,10,30,0.00,0,,169
2013-1-10,40,33,25,31,28,22,85,75,64,29.88,29.63,29.48,10,10,10,18,10,22,0.00,0,,156
2013-1-11,32,19,5,29,11,0,92,84,76,29.85,29.64,29.45,10,4,1,22,15,28,0.08,8,Rain-Snow,344
2013-1-12,6,3,0,0,-3,-8,83,76,68,30.30,30.06,29.75,10,6,2,28,16,37,T,5,Snow,326
2013-1-13,8,2,-4,0,-5,-10,79,74,69,30.37,30.28,30.14,10,10,6,18,8,20,0.00,5,,283
2013-1-14,10,2,-7,2,-2,-10,87,77,66,30.37,30.28,30.08,10,8,2,14,5,18,T,7,Snow,213
2013-1-15,38,22,6,32,19,1,96,82,67,30.14,29.88,29.64,10,8,2,22,9,28,0.05,7,Snow,241
2013-1-16,38,28,18,32,21,12,92,81,70,30.26,30.02,29.75,10,9,4,24,11,33,T,8,Snow,335
2013-1-17,29,26,23,26,21,18,92,83,74,30.43,30.27,29.97,10,10,8,15,7,18,0.00,7,,63
2013-1-18,42,33,24,30,26,22,92,76,60,29.93,29.82,29.77,10,10,10,16,7,20,0.00,1,,254
2013-1-19,37,19,1,30,8,-6,82,73,63,30.46,30.17,29.78,10,9,2,36,17,47,T,5,Snow,313
2013-1-20,6,-1,-8,0,-7,-17,86,69,51,30.61,30.47,30.30,10,7,2,30,14,40,0.05,5,Snow,309
2013-1-21,4,-4,-12,-5,-12,-19,75,69,62,30.56,30.47,30.26,10,10,10,21,10,26,0.00,1,,282
2013-1-22,14,6,-3,9,2,-7,91,80,68,30.38,30.27,30.09,10,8,2,12,4,13,0.01,5,Snow,214
2013-1-23,11,5,-2,7,-4,-9,83,74,65,30.64,30.49,30.14,10,10,10,18,10,25,0.00,1,,7
2013-1-24,22,10,-3,16,-1,-11,80,73,65,30.61,30.22,29.93,10,10,10,25,13,31,T,4,,175
2013-1-25,25,13,0,17,0,-7,84,72,60,30.33,30.23,30.07,10,10,8,22,10,28,T,4,Snow,25
2013-1-26,26,15,4,17,9,-2,88,80,72,30.21,30.05,29.96,10,10,10,15,6,16,0.00,3,,134
2013-1-27,25,16,6,18,11,4,92,82,71,29.96,29.86,29.75,10,10,7,10,4,11,0.00,1,,81
2013-1-28,34,24,14,28,22,15,96,86,75,29.88,29.81,29.75,10,6,2,12,3,13,T,6,Snow,246
2013-1-29,24,17,10,21,14,4,100,87,73,30.16,29.88,29.72,10,4,0,24,9,31,T,8,Fog-Snow,353
2013-1-30,10,0,-10,0,-11,-18,76,66,56,30.18,30.09,29.97,10,10,7,26,14,33,T,4,,317
2013-1-31,-6,-11,-17,-17,-20,-25,74,66,57,30.50,30.33,30.05,10,8,2,24,13,32,T,4,Snow,312